Airfield :
LOGIN :

Register | Disclaimer

   EN    FR    IT 

 










Legend :    VFR   Marginal VFR   IFR   Intensive IFR   Very Intensive IFR
Visi :
Ceiling :
>= 8 km
>= 3000ft
5 to 8 km
1000 to 3000 ft
1500m to 5 km
500 to 1000 ft
800 to 1500m
200 to 500 ft
< 800m
< 200 ft
Symbols :   Thunderstorms  Fog  Heavy snow  Heavy precipitations  Wind > 20 kt
SIGMETs :     Misc.  Thunderstorms  Icing  Turbulence  Mountain Waves  Volcanic Ashes






- Airport Elevation : 1260 ft
- IATA code : LDE


LFBT - Tarbes / Ossun

CURRENT METAR :
  • 121300Z AUTO 25012KT 9999 FEW013 SCT062 BKN076 11/07 Q1012 TEMPO 4000 SHRA BKN008 BKN015TCU

EXPIRED METARs :
  • 121230Z AUTO 24013KT 9999 FEW017 SCT026 BKN033 10/07 Q1012 TEMPO 4000 SHRA BKN008 BKN015TCU
  • 121200Z AUTO 25012KT 9999 SCT024 SCT040 BKN058 11/07 Q1013 TEMPO 4000 SHRA BKN008 BKN015TCU
  • 121130Z AUTO 24011KT 9999 FEW018 SCT048 BKN086 11/08 Q1013 TEMPO 4000 SHRA BKN008 BKN015TCU
  • 121100Z AUTO 24010KT 9999 FEW031 BKN044 BKN060 10/07 Q1013 TEMPO 4000 SHRA BKN008 BKN015TCU
  • 121030Z AUTO 24009KT 9999 FEW032 BKN040 OVC074 10/07 Q1014 TEMPO 4000 SHRA BKN008 BKN015TCU

TAF TAF LFBT
Valid from the 12 at 12:00 until the 13 at 12:00 UTC


121100Z 1212/1312 24010KT 9999 BKN025
PROB40
TEMPO 1212/1221 4000 SHRA BKN008 BKN015TCU
PROB30
TEMPO 1221/1306 4000 -RA OVC014
BECMG 1300/1302 VRB03KT
PROB30 1306/1309 2000 RA OVC008



MET'MAP, your aeronautical weather chart ! - Copyright ORBIFLY December 2007 - Disclaimer

ORBIFLY MET'MAP TEAM :

Programming & Development : Alexandra Zaïnal
Concept & Development : Baudouin d'Aumeries
Co-Development & Prog : Marc-Olivier Méhu
Technical & hardware support : Manuel Goepfert

Contact : metmap@orbifly.com




SOURCES & CREDITS :

   NOAA